Time;durP1;ratioP1;P1;durP2;ratioP2;P2;SDS_P1;SDS_P2;PMS_P1;PMS_P2;Temp;Humidity;BMP_temperature;BMP_pressure;BME280_temperature;BME280_humidity;BME280_pressure;Samples;Min_cycle;Max_cycle;Signal;HPM_P1;HPM_P2
2023/06/08 00:00:39;;;;;;;;;12.00;12.00;;;;;27.60;35.63;101473.53;5077998;28;45388;-72
2023/06/08 00:03:05;;;;;;;;;12.00;12.00;;;;;27.61;35.16;101471.69;5078231;28;45342;-73
2023/06/08 00:05:31;;;;;;;;;9.33;9.00;;;;;27.63;35.66;101475.81;5076671;28;45422;-72
2023/06/08 00:07:57;;;;;;;;;10.25;9.75;;;;;27.52;35.56;101453.19;5077834;27;47370;-73
2023/06/08 00:10:23;;;;;;;;;9.50;9.50;;;;;27.68;35.50;101469.03;5077831;27;45414;-73
2023/06/08 00:12:48;;;;;;;;;11.50;11.50;;;;;27.68;35.21;101461.84;5077666;27;45375;-73
2023/06/08 00:15:13;;;;;;;;;7.25;7.25;;;;;27.70;35.06;101465.13;5093231;27;45681;-73
2023/06/08 00:17:39;;;;;;;;;10.50;9.75;;;;;27.70;34.94;101459.78;5093403;27;47703;-72
2023/06/08 00:20:08;;;;;;;;;12.75;11.00;;;;;27.74;35.41;101458.31;5077985;27;46004;-73
2023/06/08 00:22:34;;;;;;;;;10.67;9.00;;;;;27.74;35.06;101461.00;5077292;27;45325;-72
2023/06/08 00:24:59;;;;;;;;;11.00;11.00;;;;;27.79;35.46;101463.06;5077470;27;45463;-72
2023/06/08 00:27:25;;;;;;;;;12.00;9.00;;;;;27.74;35.42;101458.31;5092955;27;47015;-73
2023/06/08 00:29:50;;;;;;;;;12.00;10.00;;;;;27.78;35.45;101453.41;5093047;27;45459;-72
2023/06/08 00:32:16;;;;;;;;;10.25;10.25;;;;;27.81;35.01;101457.53;5077674;28;45367;-72
2023/06/08 00:34:41;;;;;;;;;13.33;10.33;;;;;27.80;34.84;101458.56;5077577;27;45480;-72
2023/06/08 00:37:06;;;;;;;;;10.00;8.50;;;;;27.82;35.38;101461.84;5092782;27;47375;-72
2023/06/08 00:39:32;;;;;;;;;10.00;10.00;;;;;27.82;34.95;101460.00;5076151;28;45489;-72
2023/06/08 00:41:57;;;;;;;;;10.50;10.50;;;;;27.81;34.95;101452.19;5077188;28;45583;-73
2023/06/08 00:44:22;;;;;;;;;8.67;8.67;;;;;27.79;35.64;101455.03;5093123;27;45398;-73
2023/06/08 00:46:49;;;;;;;;;11.67;10.33;;;;;27.79;34.89;101444.34;5077101;27;46550;-73
2023/06/08 00:49:17;;;;;;;;;11.75;9.25;;;;;27.84;34.88;101449.91;5077445;27;45371;-73
2023/06/08 00:51:44;;;;;;;;;10.00;9.50;;;;;27.81;35.31;101447.69;5077049;28;45336;-73
2023/06/08 00:54:14;;;;;;;;;9.25;9.25;;;;;27.80;35.10;101434.50;5077150;28;45414;-72
2023/06/08 00:56:40;;;;;;;;;12.50;11.00;;;;;27.81;34.93;101428.13;5076059;27;46540;-73
2023/06/08 00:59:09;;;;;;;;;11.75;10.50;;;;;27.83;35.36;101440.28;5075609;28;45343;-72
2023/06/08 01:01:35;;;;;;;;;10.50;10.50;;;;;27.83;35.51;101447.47;5092373;27;45448;-73
2023/06/08 01:04:08;;;;;;;;;11.50;11.25;;;;;27.87;35.23;101438.00;5077028;28;45653;-72
2023/06/08 01:06:35;;;;;;;;;9.25;9.25;;;;;27.85;35.50;101432.88;5076663;27;47522;-73
2023/06/08 01:09:11;;;;;;;;;11.75;10.75;;;;;27.87;34.84;101429.97;5075568;28;45629;-73
2023/06/08 01:11:58;;;;;;;;;15.75;12.00;;;;;27.89;35.19;101429.78;5076842;28;45459;-73
2023/06/08 01:14:55;;;;;;;;;14.00;12.25;;;;;27.89;35.35;101424.44;5076580;28;45369;-72
2023/06/08 01:17:27;;;;;;;;;9.50;9.00;;;;;27.87;35.34;101427.28;5076522;27;46553;-72
2023/06/08 01:20:14;;;;;;;;;10.50;10.50;;;;;27.83;34.90;101423.41;5076672;28;45350;-72
2023/06/08 01:22:51;;;;;;;;;9.33;9.33;;;;;27.89;35.39;101443.97;5075479;27;45461;-73
2023/06/08 01:25:18;;;;;;;;;11.00;9.25;;;;;27.82;34.99;101421.75;5076406;27;45643;-72
2023/06/08 01:27:44;;;;;;;;;11.00;11.00;;;;;27.86;35.30;101431.00;5076446;27;46296;-73
2023/06/08 01:30:10;;;;;;;;;8.67;8.00;;;;;27.87;35.32;101429.16;5076369;27;45361;-72
2023/06/08 01:32:35;;;;;;;;;9.33;9.33;;;;;27.84;34.71;101422.38;5076597;27;45466;-73
2023/06/08 01:35:02;;;;;;;;;12.00;10.00;;;;;27.86;34.71;101423.00;5076683;27;45338;-72
2023/06/08 01:37:36;;;;;;;;;8.75;8.75;;;;;27.83;35.14;101432.25;5075039;28;47308;-73
2023/06/08 01:40:35;;;;;;;;;9.50;9.50;;;;;27.89;34.65;101441.31;5075981;27;45472;-73
2023/06/08 01:43:02;;;;;;;;;10.25;8.50;;;;;27.86;35.33;101433.69;5033859;28;45393;-73
2023/06/08 01:45:32;;;;;;;;;11.00;10.00;;;;;27.85;34.72;101432.03;5016424;28;45552;-72
2023/06/08 01:48:02;;;;;;;;;9.00;9.00;;;;;27.84;34.91;101425.84;5032996;28;45660;-72
2023/06/08 01:50:29;;;;;;;;;10.75;10.75;;;;;27.84;35.28;101433.88;5032555;28;45558;-72
2023/06/08 01:52:58;;;;;;;;;10.75;10.25;;;;;27.89;35.53;101438.63;5033254;28;45445;-72
2023/06/08 01:55:24;;;;;;;;;10.00;10.00;;;;;27.87;35.29;101440.66;5033548;28;45539;-72
2023/06/08 01:57:50;;;;;;;;;10.50;10.50;;;;;27.89;35.11;101441.31;5033290;28;45434;-72
2023/06/08 02:00:17;;;;;;;;;11.00;9.50;;;;;27.90;35.22;101436.75;5033667;28;45411;-72
2023/06/08 02:02:44;;;;;;;;;8.00;8.00;;;;;27.85;34.99;101434.72;5033252;28;45463;-73
2023/06/08 02:05:11;;;;;;;;;12.00;12.00;;;;;27.84;35.16;101441.09;5033434;28;45456;-72
2023/06/08 02:07:40;;;;;;;;;8.75;8.75;;;;;27.85;35.00;101434.72;5032844;28;46188;-73
2023/06/08 02:10:07;;;;;;;;;10.50;9.00;;;;;27.87;35.32;101440.66;5033407;28;45286;-73
2023/06/08 02:12:33;;;;;;;;;9.00;9.00;;;;;27.73;35.27;101410.41;5050158;28;45490;-73
2023/06/08 02:14:59;;;;;;;;;11.25;11.25;;;;;27.81;35.01;101420.94;5032903;28;45649;-72
2023/06/08 02:17:29;;;;;;;;;12.00;9.00;;;;;27.86;35.46;101439.03;5032779;28;45600;-72
2023/06/08 02:19:54;;;;;;;;;11.67;9.33;;;;;27.86;35.00;101433.69;5055550;28;45341;-73
2023/06/08 02:22:20;;;;;;;;;8.00;8.00;;;;;27.90;35.05;101442.09;5053838;28;45392;-73
2023/06/08 02:24:46;;;;;;;;;9.33;9.33;;;;;27.87;35.21;101435.31;5055697;28;45387;-72
2023/06/08 02:27:13;;;;;;;;;12.00;10.75;;;;;27.89;34.91;101435.97;5055338;28;45554;-72
2023/06/08 02:29:39;;;;;;;;;10.67;8.33;;;;;27.86;34.86;101431.00;5037417;28;45431;-72
2023/06/08 02:32:05;;;;;;;;;9.67;9.00;;;;;27.87;35.00;101437.19;5054412;28;45310;-73
2023/06/08 02:34:31;;;;;;;;;11.75;9.25;;;;;27.84;35.18;101430.41;5054521;28;45315;-72
2023/06/08 02:36:57;;;;;;;;;11.00;9.67;;;;;27.82;35.24;101425.25;5054808;28;46344;-72
2023/06/08 02:39:22;;;;;;;;;11.00;9.50;;;;;27.81;34.71;101422.78;5055406;28;45318;-73
2023/06/08 02:41:48;;;;;;;;;9.33;8.67;;;;;27.88;34.78;101431.63;5055501;28;45914;-73
2023/06/08 02:44:13;;;;;;;;;10.00;10.00;;;;;27.89;34.63;101435.97;5055341;28;45463;-72
2023/06/08 02:46:39;;;;;;;;;12.00;10.00;;;;;27.87;34.76;101438.00;5036570;28;45427;-73
2023/06/08 02:49:04;;;;;;;;;12.00;9.00;;;;;27.87;35.20;101438.00;5055171;28;45315;-72
2023/06/08 02:51:30;;;;;;;;;11.75;10.50;;;;;27.87;35.32;101438.00;5054969;28;45341;-73
2023/06/08 02:53:55;;;;;;;;;10.33;10.33;;;;;27.75;34.63;101411.03;5055122;28;45596;-73
2023/06/08 02:56:21;;;;;;;;;9.50;9.25;;;;;27.84;34.51;101431.19;5053615;28;47648;-72
2023/06/08 02:58:46;;;;;;;;;11.50;11.50;;;;;27.83;35.34;101431.41;5057496;28;45302;-72
2023/06/08 03:01:15;;;;;;;;;9.00;8.50;;;;;27.83;34.82;101434.09;5058729;28;45261;-72
2023/06/08 03:03:44;;;;;;;;;8.75;7.75;;;;;27.86;35.25;101436.38;5058698;28;45432;-73
2023/06/08 03:06:12;;;;;;;;;10.00;10.00;;;;;27.85;35.12;101432.03;5058220;28;45428;-72
2023/06/08 03:08:39;;;;;;;;;13.00;12.00;;;;;27.86;34.94;101436.38;5058012;28;45328;-72
2023/06/08 03:11:04;;;;;;;;;11.67;11.67;;;;;27.83;35.34;101434.09;5058411;28;45324;-73
2023/06/08 03:13:30;;;;;;;;;10.25;10.25;;;;;27.87;35.44;101442.53;5058527;28;45312;-72
2023/06/08 03:15:55;;;;;;;;;9.50;8.50;;;;;27.83;34.74;101436.78;5071600;28;45341;-72
2023/06/08 03:18:22;;;;;;;;;9.00;7.00;;;;;27.84;34.96;101436.56;5078105;27;45477;-73
2023/06/08 03:20:51;;;;;;;;;9.33;9.00;;;;;27.79;35.43;101427.50;5078561;28;45365;-72
2023/06/08 03:23:19;;;;;;;;;8.00;8.00;;;;;27.84;35.38;101431.19;5078597;27;45413;-72
2023/06/08 03:25:49;;;;;;;;;10.00;10.00;;;;;27.85;34.85;101432.03;5078383;27;47116;-72
2023/06/08 03:28:15;;;;;;;;;10.33;10.00;;;;;27.83;34.78;101424.22;5078353;27;45412;-72
2023/06/08 03:30:41;;;;;;;;;8.00;7.25;;;;;27.88;35.15;101434.31;5094101;27;45400;-73
2023/06/08 03:33:06;;;;;;;;;10.25;9.50;;;;;27.85;34.58;101434.72;5078579;28;45396;-72
2023/06/08 03:35:32;;;;;;;;;9.00;9.00;;;;;27.83;34.74;101434.09;5077921;28;46092;-72
2023/06/08 03:37:57;;;;;;;;;9.25;9.25;;;;;27.84;35.40;101447.25;5076926;28;45406;-73
2023/06/08 03:40:22;;;;;;;;;10.00;9.50;;;;;27.81;35.18;101428.97;5078500;28;45409;-72
2023/06/08 03:42:50;;;;;;;;;11.25;11.25;;;;;27.85;35.40;101432.03;5094115;27;45689;-72
2023/06/08 03:45:16;;;;;;;;;10.00;10.00;;;;;27.87;35.06;101439.88;5078133;27;45404;-72
2023/06/08 03:47:42;;;;;;;;;9.25;9.00;;;;;27.81;35.21;101426.28;5078036;28;45339;-71
2023/06/08 03:50:07;;;;;;;;;8.33;7.67;;;;;27.84;35.00;101433.06;5077825;27;45462;-72
2023/06/08 03:52:33;;;;;;;;;10.50;9.25;;;;;27.78;35.61;101423.16;5078186;28;45297;-72
2023/06/08 03:54:59;;;;;;;;;9.00;7.00;;;;;27.86;34.92;101431.00;5077965;27;46712;-74
2023/06/08 03:57:24;;;;;;;;;12.00;10.25;;;;;27.83;35.08;101423.41;5078174;27;45363;-72
2023/06/08 03:59:49;;;;;;;;;10.00;10.00;;;;;27.77;34.88;101414.31;5078193;28;45276;-72
2023/06/08 04:02:15;;;;;;;;;10.00;10.00;;;;;27.79;35.17;101417.59;5076863;28;45304;-72
2023/06/08 04:04:40;;;;;;;;;9.75;8.75;;;;;27.81;35.19;101418.28;5076005;28;47165;-72
2023/06/08 04:07:05;;;;;;;;;12.25;12.25;;;;;27.83;35.09;101424.22;5078033;28;45363;-73
2023/06/08 04:09:31;;;;;;;;;8.00;8.00;;;;;27.86;35.50;101428.34;5076268;28;45444;-72
2023/06/08 04:11:57;;;;;;;;;9.50;9.50;;;;;27.84;34.88;101422.38;5076680;28;45378;-72
2023/06/08 04:14:22;;;;;;;;;8.00;8.00;;;;;27.85;34.64;101427.50;5077473;27;45409;-72
2023/06/08 04:16:48;;;;;;;;;9.33;9.33;;;;;27.85;34.66;101424.00;5077465;27;45545;-72
2023/06/08 04:19:13;;;;;;;;;9.50;9.50;;;;;27.87;34.99;101429.16;5077652;28;45316;-72
2023/06/08 04:21:39;;;;;;;;;10.00;10.00;;;;;27.85;35.58;101427.50;5077508;27;45560;-72
2023/06/08 04:24:05;;;;;;;;;10.33;9.67;;;;;27.88;35.12;101433.47;5093379;27;46423;-72
2023/06/08 04:26:31;;;;;;;;;10.00;9.33;;;;;27.87;35.46;101431.84;5077571;28;45460;-72
2023/06/08 04:28:56;;;;;;;;;9.00;9.00;;;;;27.86;34.88;101431.00;5078159;27;45803;-72
2023/06/08 04:31:21;;;;;;;;;9.67;8.00;;;;;27.85;35.12;101422.16;5077671;27;45401;-72
2023/06/08 04:33:47;;;;;;;;;10.75;9.75;;;;;27.90;35.48;101429.56;5092599;27;47428;-72
2023/06/08 04:36:12;;;;;;;;;8.75;8.75;;;;;27.90;34.86;101426.06;5077402;27;45409;-73
2023/06/08 04:38:38;;;;;;;;;10.25;9.25;;;;;27.85;35.22;101422.16;5077420;27;45483;-73
2023/06/08 04:41:07;;;;;;;;;9.75;9.00;;;;;27.90;34.96;101432.25;5075913;28;45361;-72
2023/06/08 04:43:32;;;;;;;;;10.33;8.67;;;;;27.89;34.98;101427.94;5077256;27;46692;-72
2023/06/08 04:45:59;;;;;;;;;10.00;8.33;;;;;27.91;35.44;101433.91;5077073;28;45366;-72
2023/06/08 04:48:28;;;;;;;;;7.75;7.25;;;;;27.92;35.32;101430.16;5077077;28;45334;-72
2023/06/08 04:50:59;;;;;;;;;11.00;10.00;;;;;27.90;35.16;101426.88;5077198;27;45298;-72
2023/06/08 04:53:25;;;;;;;;;9.33;7.67;;;;;27.90;34.63;101429.56;5077061;28;46569;-73
2023/06/08 04:55:57;;;;;;;;;12.75;7.75;;;;;27.92;35.46;101427.50;5076922;27;45468;-73
2023/06/08 04:58:26;;;;;;;;;10.00;10.00;;;;;27.92;35.30;101432.84;5077380;27;45228;-72
2023/06/08 05:00:52;;;;;;;;;10.67;10.67;;;;;27.90;35.03;101426.88;5077120;28;45404;-72
2023/06/08 05:03:19;;;;;;;;;9.00;8.67;;;;;27.92;34.98;101427.50;5076757;27;45607;-72
2023/06/08 05:05:44;;;;;;;;;8.33;8.33;;;;;27.94;35.13;101430.81;5076847;28;45291;-72
2023/06/08 05:08:10;;;;;;;;;10.00;9.00;;;;;27.92;34.99;101427.50;5076904;27;45333;-73
2023/06/08 05:10:35;;;;;;;;;8.33;8.33;;;;;27.81;35.04;101409.41;5076776;28;45558;-72
2023/06/08 05:13:01;;;;;;;;;10.33;9.33;;;;;27.93;34.91;101422.97;5075405;28;46359;-73
2023/06/08 05:15:26;;;;;;;;;8.00;8.00;;;;;27.94;35.32;101425.47;5076431;28;45335;-72
2023/06/08 05:17:52;;;;;;;;;7.67;7.67;;;;;27.92;35.30;101418.69;5076248;27;45249;-73
2023/06/08 05:20:18;;;;;;;;;10.33;9.00;;;;;27.92;34.71;101430.16;5076277;27;45216;-72
2023/06/08 05:22:44;;;;;;;;;9.00;9.00;;;;;27.96;35.22;101427.91;5086241;27;46438;-72
2023/06/08 05:25:09;;;;;;;;;8.00;8.00;;;;;27.94;35.16;101413.94;5076629;27;45412;-72
2023/06/08 05:27:35;;;;;;;;;11.00;11.00;;;;;27.96;35.01;101418.06;5076453;27;45334;-72
2023/06/08 05:30:00;;;;;;;;;9.33;9.00;;;;;27.96;35.02;101414.56;5076657;27;45402;-72
2023/06/08 05:32:25;;;;;;;;;9.50;8.75;;;;;27.98;35.00;101417.84;5091445;27;46701;-72
2023/06/08 05:34:51;;;;;;;;;10.50;9.50;;;;;27.96;34.84;101407.34;5091667;27;45375;-72
2023/06/08 05:37:16;;;;;;;;;8.67;8.67;;;;;27.98;35.02;101417.84;5076245;27;45373;-73
2023/06/08 05:39:41;;;;;;;;;11.67;10.67;;;;;28.00;35.34;101420.31;5076273;28;45483;-72
2023/06/08 05:42:07;;;;;;;;;6.67;6.67;;;;;28.01;34.65;101413.91;5076543;27;46132;-73
2023/06/08 05:44:32;;;;;;;;;9.00;9.00;;;;;28.00;35.10;101404.28;5075141;28;46026;-73
2023/06/08 05:46:58;;;;;;;;;10.33;9.00;;;;;28.03;35.45;101418.03;5074817;28;45496;-73
2023/06/08 05:49:24;;;;;;;;;9.33;7.00;;;;;28.06;35.70;101414.13;5076269;28;45432;-72
2023/06/08 05:51:50;;;;;;;;;10.00;9.00;;;;;28.04;35.33;101416.19;5076183;28;46475;-72
2023/06/08 05:54:15;;;;;;;;;9.00;8.33;;;;;28.04;34.93;101413.50;5076169;28;45371;-73
2023/06/08 05:56:41;;;;;;;;;11.00;9.67;;;;;28.00;35.30;101402.41;5091931;27;45224;-72
2023/06/08 05:59:06;;;;;;;;;9.00;9.00;;;;;28.00;35.48;101399.72;5092386;27;45639;-73
2023/06/08 06:01:31;;;;;;;;;8.33;8.33;;;;;28.08;34.75;101420.09;5075786;27;45507;-72
2023/06/08 06:03:57;;;;;;;;;7.33;7.33;;;;;28.07;34.83;101405.09;5075991;28;45332;-72
2023/06/08 06:06:22;;;;;;;;;9.33;8.00;;;;;28.07;34.81;101403.22;5074817;28;45545;-73
2023/06/08 06:08:47;;;;;;;;;9.33;8.33;;;;;28.11;34.88;101410.81;5075902;27;45281;-72
2023/06/08 06:11:13;;;;;;;;;8.33;8.33;;;;;28.08;35.13;101401.34;5074674;28;47035;-71
2023/06/08 06:13:38;;;;;;;;;12.00;9.00;;;;;28.10;35.11;101404.66;5076107;28;45367;-71
2023/06/08 06:16:04;;;;;;;;;9.00;9.00;;;;;28.11;35.14;101403.63;5090967;27;45374;-72
2023/06/08 06:18:29;;;;;;;;;11.25;11.25;;;;;28.12;34.48;101402.59;5074657;28;45575;-72
2023/06/08 06:20:55;;;;;;;;;15.25;12.00;;;;;28.05;34.29;101393.78;5076076;28;46139;-72
2023/06/08 06:23:20;;;;;;;;;15.50;12.50;;;;;28.08;34.34;101401.34;5075665;27;45360;-72
2023/06/08 06:25:46;;;;;;;;;14.00;14.00;;;;;28.07;34.06;101405.09;5074172;28;45307;-71
2023/06/08 06:28:11;;;;;;;;;12.00;12.00;;;;;28.05;34.68;101407.94;5075392;28;45441;-73
2023/06/08 06:30:36;;;;;;;;;14.33;12.33;;;;;27.99;34.38;101406.13;5091342;27;46894;-74
2023/06/08 06:33:02;;;;;;;;;12.00;12.00;;;;;28.03;34.06;101415.34;5094229;27;45462;-72
2023/06/08 06:35:27;;;;;;;;;17.25;12.00;;;;;27.96;34.10;101404.69;5095017;27;45324;-77
2023/06/08 06:37:54;;;;;;;;;9.33;8.33;;;;;27.91;34.93;101399.13;5078371;27;45334;-72
2023/06/08 06:40:20;;;;;;;;;10.00;9.00;;;;;28.01;34.18;101411.25;5037210;27;46705;-73
2023/06/08 06:42:45;;;;;;;;;11.75;10.25;;;;;28.04;34.83;101408.16;5068279;28;45828;-73
2023/06/08 06:45:11;;;;;;;;;9.33;8.33;;;;;28.14;34.68;101394.34;5074370;28;45492;-73
2023/06/08 06:47:39;;;;;;;;;11.00;8.00;;;;;28.24;34.21;101396.59;5072256;27;45734;-73
2023/06/08 06:50:06;;;;;;;;;11.33;8.33;;;;;28.34;34.58;101399.66;5071272;28;46392;-73
2023/06/08 06:52:32;;;;;;;;;10.67;10.67;;;;;28.38;34.39;101395.53;5072374;28;45372;-73
2023/06/08 06:54:58;;;;;;;;;8.00;8.00;;;;;28.40;34.68;101388.13;5073703;28;45414;-73
2023/06/08 06:57:23;;;;;;;;;14.00;9.67;;;;;28.51;34.32;101400.06;5072780;27;45512;-73
2023/06/08 06:59:50;;;;;;;;;9.67;8.33;;;;;28.57;34.32;101400.25;5073919;27;45671;-73
2023/06/08 07:02:15;;;;;;;;;9.67;8.67;;;;;28.59;34.83;101384.78;5073822;27;45837;-73
2023/06/08 07:04:41;;;;;;;;;9.33;9.33;;;;;28.70;34.60;101397.50;5088561;27;45506;-72
2023/06/08 07:07:07;;;;;;;;;10.67;10.00;;;;;28.72;34.46;101398.13;5073091;27;45442;-73
2023/06/08 07:09:32;;;;;;;;;11.00;10.00;;;;;28.83;34.51;101409.19;5071345;27;46136;-73
2023/06/08 07:12:09;;;;;;;;;13.00;10.00;;;;;28.84;34.46;101411.66;5072846;28;45632;-73
2023/06/08 07:14:35;;;;;;;;;11.67;10.00;;;;;28.82;34.20;101391.47;5072997;28;45376;-73
2023/06/08 07:17:00;;;;;;;;;9.67;8.00;;;;;28.86;34.40;101403.41;5071128;28;45642;-72
2023/06/08 07:19:25;;;;;;;;;10.33;10.33;;;;;28.90;34.47;101401.94;5072077;27;46193;-72
2023/06/08 07:21:52;;;;;;;;;8.67;8.67;;;;;28.96;34.72;101402.97;5070296;28;45534;-72
2023/06/08 07:24:18;;;;;;;;;11.75;10.50;;;;;28.96;34.61;101394.94;5072844;28;45535;-73
2023/06/08 07:26:45;;;;;;;;;9.67;9.67;;;;;28.97;34.17;101393.88;5073002;28;45859;-74
2023/06/08 07:29:13;;;;;;;;;9.33;8.67;;;;;29.00;34.28;101393.44;5073607;28;45637;-72
2023/06/08 07:31:39;;;;;;;;;6.00;5.33;;;;;29.09;34.23;101404.78;5072953;27;45496;-73
2023/06/08 07:34:06;;;;;;;;;9.00;9.00;;;;;29.13;34.28;101400.63;5073073;27;45597;-73
2023/06/08 07:36:32;;;;;;;;;11.33;9.67;;;;;29.14;34.42;101394.22;5072800;27;45563;-73
2023/06/08 07:38:57;;;;;;;;;11.33;9.00;;;;;29.13;34.58;101383.72;5088882;27;48167;-73
2023/06/08 07:41:26;;;;;;;;;11.67;8.33;;;;;29.11;34.30;101372.41;5071753;27;45438;-73
2023/06/08 07:43:51;;;;;;;;;12.67;8.67;;;;;29.18;34.18;101394.59;5072012;28;45592;-73
2023/06/08 07:46:16;;;;;;;;;10.00;9.33;;;;;29.25;34.60;101389.22;5072452;27;45902;-73
2023/06/08 07:48:42;;;;;;;;;13.67;10.00;;;;;29.27;34.11;101387.13;5073229;28;45340;-73
2023/06/08 07:51:07;;;;;;;;;8.33;7.33;;;;;29.24;34.16;101391.06;5072664;28;46423;-73
2023/06/08 07:53:37;;;;;;;;;12.00;11.00;;;;;29.34;33.91;101387.91;5087997;27;45615;-73
2023/06/08 07:56:03;;;;;;;;;9.67;9.67;;;;;29.36;34.52;101395.72;5072543;28;45583;-73
2023/06/08 07:58:28;;;;;;;;;10.33;9.00;;;;;29.30;34.35;101373.31;5071438;27;46212;-73
2023/06/08 08:00:54;;;;;;;;;8.33;8.00;;;;;29.34;34.13;101371.81;5072441;27;45505;-73
2023/06/08 08:03:19;;;;;;;;;10.00;9.67;;;;;29.40;34.18;101388.91;5072307;28;45493;-73
2023/06/08 08:05:44;;;;;;;;;10.33;10.00;;;;;29.39;34.10;101380.03;5072818;27;45493;-73
2023/06/08 08:08:10;;;;;;;;;11.33;10.00;;;;;29.37;34.32;101368.72;5072649;28;46545;-72
2023/06/08 08:10:35;;;;;;;;;8.67;7.67;;;;;29.39;34.46;101369.31;5071697;28;45371;-72
2023/06/08 08:13:01;;;;;;;;;12.00;10.67;;;;;29.41;34.39;101374.44;5070536;28;45415;-72
2023/06/08 08:15:26;;;;;;;;;10.00;8.33;;;;;29.44;34.10;101371.31;5071089;28;45682;-72
2023/06/08 08:17:52;;;;;;;;;12.67;9.33;;;;;29.48;34.33;101379.75;5071975;27;46258;-72
2023/06/08 08:20:17;;;;;;;;;11.00;9.33;;;;;29.50;34.81;101366.97;5088225;27;45637;-72
2023/06/08 08:22:43;;;;;;;;;9.67;9.00;;;;;29.50;34.28;101367.78;5071964;28;45621;-73
2023/06/08 08:25:08;;;;;;;;;9.33;9.33;;;;;29.51;34.29;101365.91;5072517;28;45857;-73
2023/06/08 08:27:33;;;;;;;;;9.33;9.33;;;;;29.36;34.32;101337.59;5069848;28;46983;-72
2023/06/08 08:29:59;;;;;;;;;12.00;10.33;;;;;29.51;33.99;101352.50;5071804;27;45534;-72
2023/06/08 08:32:24;;;;;;;;;10.00;9.67;;;;;29.57;34.37;101362.34;5071776;27;45819;-72
2023/06/08 08:34:50;;;;;;;;;12.00;11.00;;;;;29.58;34.33;101360.50;5072364;28;45438;-72
2023/06/08 08:37:17;;;;;;;;;12.00;10.33;;;;;29.58;34.13;101374.72;5071366;27;46336;-73
2023/06/08 08:39:42;;;;;;;;;9.67;9.67;;;;;29.60;34.25;101367.28;5070801;28;46426;-72
2023/06/08 08:42:11;;;;;;;;;8.33;7.00;;;;;29.58;34.23;101352.47;5071642;28;45454;-72
2023/06/08 08:44:36;;;;;;;;;9.67;9.67;;;;;29.60;34.41;101355.72;5071537;28;45422;-72
2023/06/08 08:47:04;;;;;;;;;9.67;8.33;;;;;29.58;34.43;101349.78;5071317;28;46053;-72
2023/06/08 08:49:36;;;;;;;;;10.67;10.67;;;;;29.62;34.29;101341.06;5071091;27;45617;-72
2023/06/08 08:52:02;;;;;;;;;10.33;9.00;;;;;29.65;34.19;101345.16;5071739;27;46140;-72
2023/06/08 08:54:33;;;;;;;;;13.67;9.33;;;;;29.60;34.26;101335.13;5070575;28;45569;-71
2023/06/08 08:56:59;;;;;;;;;10.00;9.00;;;;;29.66;34.36;101365.59;5070173;27;45541;-72
2023/06/08 08:59:28;;;;;;;;;10.00;9.00;;;;;29.64;34.47;101346.19;5071268;28;46582;-72
2023/06/08 09:01:54;;;;;;;;;11.00;9.67;;;;;29.63;34.24;101350.75;5071959;28;45474;-72
2023/06/08 09:04:20;;;;;;;;;12.33;11.67;;;;;29.67;34.27;101350.31;5069390;28;45529;-72
2023/06/08 09:06:48;;;;;;;;;10.33;10.33;;;;;29.66;34.18;101365.59;5071296;27;46018;-73
2023/06/08 09:09:13;;;;;;;;;13.00;10.67;;;;;29.69;34.39;101354.41;5071485;28;45989;-73
2023/06/08 09:11:57;;;;;;;;;9.00;8.67;;;;;29.72;34.27;101335.22;5071581;28;45503;-72
2023/06/08 09:14:22;;;;;;;;;11.33;11.00;;;;;29.71;34.42;101343.47;5068906;27;45598;-72
2023/06/08 09:16:48;;;;;;;;;13.00;12.00;;;;;29.72;34.61;101343.28;5070553;27;46297;-73
2023/06/08 09:19:13;;;;;;;;;9.33;8.33;;;;;29.59;34.29;101316.53;5070061;28;45526;-73
2023/06/08 09:21:42;;;;;;;;;10.67;10.67;;;;;29.71;34.58;101338.09;5071209;28;45434;-72
2023/06/08 09:24:11;;;;;;;;;11.33;10.00;;;;;29.72;34.03;101343.28;5070472;28;45338;-72
2023/06/08 09:26:55;;;;;;;;;11.25;11.25;;;;;29.73;34.34;101336.88;5068685;28;48006;-72
2023/06/08 09:29:43;;;;;;;;;12.00;9.33;;;;;29.74;34.60;101330.47;5068416;28;45585;-73
2023/06/08 09:32:12;;;;;;;;;11.67;11.67;;;;;29.71;34.31;101328.25;5071180;28;46435;-75
2023/06/08 09:35:03;;;;;;;;;8.67;8.67;;;;;29.71;34.28;101332.75;5071736;28;45662;-73
2023/06/08 09:37:31;;;;;;;;;10.67;9.33;;;;;29.74;34.40;101326.97;5070273;28;45384;-73
2023/06/08 09:40:00;;;;;;;;;11.33;11.33;;;;;29.70;34.46;101323.06;5070508;27;45702;-73
2023/06/08 09:42:45;;;;;;;;;10.00;10.00;;;;;29.67;34.68;101321.63;5070738;28;45513;-73
2023/06/08 09:45:13;;;;;;;;;12.00;12.00;;;;;29.70;34.35;101331.91;5070861;28;45367;-73
2023/06/08 09:47:39;;;;;;;;;12.00;12.00;;;;;29.65;34.72;101329.09;5070384;28;45828;-73
2023/06/08 09:50:07;;;;;;;;;13.25;13.25;;;;;29.67;34.47;101318.13;5069428;28;45370;-74
2023/06/08 09:52:34;;;;;;;;;12.33;11.00;;;;;29.59;34.42;101312.00;5069940;28;45637;-73
2023/06/08 09:55:00;;;;;;;;;11.33;10.33;;;;;29.67;34.44;101318.13;5070143;28;45871;-73
2023/06/08 09:57:28;;;;;;;;;15.33;14.00;;;;;29.64;34.65;101305.97;5068553;28;47279;-73
2023/06/08 10:00:09;;;;;;;;;14.33;12.33;;;;;29.60;34.56;101297.59;5068398;28;45601;-73
2023/06/08 10:02:41;;;;;;;;;13.33;13.00;;;;;29.60;34.55;101300.25;5070842;28;45610;-73
2023/06/08 10:05:15;;;;;;;;;14.75;13.00;;;;;29.61;34.59;101285.00;5069300;28;45520;-73
2023/06/08 10:07:44;;;;;;;;;13.67;13.67;;;;;29.57;34.72;101292.66;5067197;27;46628;-73
2023/06/08 10:10:21;;;;;;;;;15.00;15.00;;;;;29.61;34.85;101309.94;5070632;28;45574;-73
2023/06/08 10:12:47;;;;;;;;;14.00;14.00;;;;;29.59;34.82;101301.28;5070381;28;45394;-74
2023/06/08 10:15:14;;;;;;;;;17.75;14.50;;;;;29.58;34.75;101294.31;5070605;28;46587;-73
2023/06/08 10:17:42;;;;;;;;;15.25;14.75;;;;;29.54;34.53;101292.25;5070504;28;47524;-73
2023/06/08 10:20:08;;;;;;;;;16.00;16.00;;;;;29.53;34.91;101288.78;5068675;28;45352;-73
2023/06/08 10:22:36;;;;;;;;;15.25;15.25;;;;;29.53;34.46;101278.06;5069511;28;45864;-73
2023/06/08 10:25:03;;;;;;;;;15.50;14.75;;;;;29.54;34.51;101303.81;5070119;27;45635;-73
2023/06/08 10:27:30;;;;;;;;;18.00;17.00;;;;;29.54;35.09;101289.59;5068163;27;47116;-73
2023/06/08 10:30:05;;;;;;;;;13.00;12.00;;;;;29.52;34.86;101292.50;5063381;27;45884;-73
2023/06/08 10:32:42;;;;;;;;;12.00;12.00;;;;;29.54;35.11;101292.25;5069733;27;46439;-73
2023/06/08 10:35:10;;;;;;;;;14.75;14.00;;;;;29.49;35.10;101287.56;5069315;27;45591;-73
2023/06/08 10:37:37;;;;;;;;;15.00;15.00;;;;;29.54;34.80;101292.25;5067399;28;45559;-72
2023/06/08 10:40:10;;;;;;;;;12.25;12.25;;;;;29.52;35.03;101287.13;5068911;28;45518;-73
2023/06/08 10:42:36;;;;;;;;;14.00;14.00;;;;;29.50;35.41;101271.28;5067942;28;45540;-73
2023/06/08 10:45:04;;;;;;;;;14.75;14.25;;;;;29.48;35.47;101284.09;5069176;28;46576;-73
2023/06/08 10:47:31;;;;;;;;;16.50;16.00;;;;;29.44;35.15;101277.53;5067714;28;47470;-72
2023/06/08 10:50:06;;;;;;;;;14.50;13.50;;;;;29.52;35.21;101282.59;5067880;28;45642;-73
2023/06/08 10:52:45;;;;;;;;;16.00;14.25;;;;;29.51;35.51;101277.44;5068016;28;45528;-73
2023/06/08 10:55:16;;;;;;;;;15.00;15.00;;;;;29.54;35.96;101284.22;5069703;28;45659;-73
2023/06/08 10:57:43;;;;;;;;;14.25;14.25;;;;;29.55;35.59;101285.88;5100942;27;47664;-72
2023/06/08 11:00:21;;;;;;;;;16.25;16.25;;;;;29.57;35.69;101273.06;5068817;28;45470;-72
2023/06/08 11:02:54;;;;;;;;;15.50;15.25;;;;;29.57;35.68;101270.38;5069099;28;45508;-72
2023/06/08 11:05:20;;;;;;;;;13.25;13.25;;;;;29.57;35.28;101278.44;5068628;27;45561;-72
2023/06/08 11:07:46;;;;;;;;;13.75;13.75;;;;;29.48;35.31;101256.47;5068030;27;46157;-73
2023/06/08 11:10:12;;;;;;;;;15.25;15.25;;;;;29.57;35.53;101270.38;5069697;27;45563;-72
2023/06/08 11:12:38;;;;;;;;;17.50;15.25;;;;;29.57;35.82;101255.13;5069314;27;45505;-72
2023/06/08 11:15:04;;;;;;;;;16.50;15.75;;;;;29.53;35.63;101259.31;5068934;28;45596;-73
2023/06/08 11:17:30;;;;;;;;;16.75;15.00;;;;;29.51;35.41;101243.44;5066517;27;48453;-72